createdAt,value
2023-05-20T00:02:12.428Z,93700.00
2023-05-20T00:04:42.306Z,93702.75
2023-05-20T00:07:09.856Z,93699.91
2023-05-20T00:09:39.633Z,93701.28
2023-05-20T00:12:07.482Z,93700.47
2023-05-20T00:14:34.804Z,93697.78
2023-05-20T00:17:02.185Z,93690.81
2023-05-20T00:19:29.989Z,93695.81
2023-05-20T00:21:58.178Z,93698.75
2023-05-20T00:24:25.960Z,93700.69
2023-05-20T00:26:54.075Z,93701.50
2023-05-20T00:29:22.350Z,93686.47
2023-05-20T00:31:49.847Z,93686.81
2023-05-20T00:34:17.657Z,93685.34
2023-05-20T00:36:44.969Z,93687.47
2023-05-20T00:39:12.768Z,93681.00
2023-05-20T00:41:41.060Z,93685.22
2023-05-20T00:44:08.348Z,93681.44
2023-05-20T00:46:36.175Z,93670.06
2023-05-20T00:49:04.049Z,93649.50
2023-05-20T00:51:31.624Z,93650.03
2023-05-20T00:53:59.160Z,93657.53
2023-05-20T00:56:26.947Z,93662.84
2023-05-20T00:58:54.721Z,93663.56
2023-05-20T01:01:22.295Z,93659.69
2023-05-20T01:03:50.053Z,93660.25
2023-05-20T01:06:17.379Z,93659.34
2023-05-20T01:08:44.685Z,93672.28
2023-05-20T01:11:21.036Z,93672.41
2023-05-20T01:13:54.530Z,93659.78
2023-05-20T01:16:25.047Z,93672.03
2023-05-20T01:18:56.313Z,93663.16
2023-05-20T01:21:24.566Z,93675.59
2023-05-20T01:23:51.992Z,93678.72
2023-05-20T01:26:19.733Z,93668.06
2023-05-20T01:28:47.599Z,93666.75
2023-05-20T01:31:23.851Z,93657.16
2023-05-20T01:33:56.561Z,93667.69
2023-05-20T01:36:25.233Z,93660.91
2023-05-20T01:38:54.513Z,93664.97
2023-05-20T01:41:25.377Z,93670.47
2023-05-20T01:43:55.314Z,93671.03
2023-05-20T01:46:22.948Z,93665.19
2023-05-20T01:48:50.491Z,93665.97
2023-05-20T01:51:18.398Z,93668.97
2023-05-20T01:53:45.773Z,93662.09
2023-05-20T01:56:13.651Z,93669.84
2023-05-20T01:58:41.338Z,93661.09
2023-05-20T02:01:09.097Z,93664.44
2023-05-20T02:03:36.870Z,93661.19
2023-05-20T02:06:04.327Z,93661.28
2023-05-20T02:08:31.684Z,93662.22
2023-05-20T02:11:00.136Z,93661.09
2023-05-20T02:13:28.224Z,93657.66
2023-05-20T02:15:55.870Z,93656.00
2023-05-20T02:18:26.742Z,93656.66
2023-05-20T02:20:54.089Z,93660.03
2023-05-20T02:23:21.837Z,93659.28
2023-05-20T02:25:49.159Z,93663.53
2023-05-20T02:28:17.352Z,93662.28
2023-05-20T02:30:45.094Z,93661.06
2023-05-20T02:33:14.245Z,93661.34
2023-05-20T02:35:42.224Z,93665.75
2023-05-20T02:38:11.231Z,93661.63
2023-05-20T02:40:38.717Z,93662.00
2023-05-20T02:43:06.291Z,93662.06
2023-05-20T02:45:34.835Z,93664.63
2023-05-20T02:48:07.800Z,93662.06
2023-05-20T02:50:41.271Z,93661.00
2023-05-20T02:53:08.782Z,93659.19
2023-05-20T02:55:37.119Z,93668.47
2023-05-20T02:58:04.416Z,93671.09
2023-05-20T03:00:32.185Z,93672.09
2023-05-20T03:02:59.989Z,93672.69
2023-05-20T03:05:28.553Z,93669.91
2023-05-20T03:07:56.707Z,93676.59
2023-05-20T03:10:24.365Z,93682.09
2023-05-20T03:12:51.764Z,93683.47
2023-05-20T03:15:19.097Z,93686.00
2023-05-20T03:17:46.850Z,93685.94
2023-05-20T03:20:15.551Z,93684.78
2023-05-20T03:22:42.936Z,93694.00
2023-05-20T03:25:10.867Z,93688.34
2023-05-20T03:27:38.269Z,93689.87
2023-05-20T03:30:06.469Z,93686.44
2023-05-20T03:32:34.226Z,93691.88
2023-05-20T03:35:02.010Z,93694.62
2023-05-20T03:37:29.763Z,93690.34
2023-05-20T03:39:57.642Z,93692.47
2023-05-20T03:42:25.235Z,93687.03
2023-05-20T03:44:53.776Z,93686.91
2023-05-20T03:47:27.938Z,93692.25
2023-05-20T03:49:55.473Z,93688.34
2023-05-20T03:52:25.754Z,93703.06
2023-05-20T03:54:54.073Z,93704.28
2023-05-20T03:57:21.620Z,93695.94
2023-05-20T03:59:56.317Z,93706.37
2023-05-20T04:02:24.266Z,93700.66
2023-05-20T04:04:57.898Z,93708.84
2023-05-20T04:07:32.090Z,93711.47
2023-05-20T04:10:08.168Z,93713.37
2023-05-20T04:12:39.615Z,93712.78
2023-05-20T04:15:09.251Z,93721.84
2023-05-20T04:17:38.581Z,93716.19
2023-05-20T04:20:08.128Z,93717.25
2023-05-20T04:22:37.626Z,93703.63
2023-05-20T04:25:05.443Z,93709.56
2023-05-20T04:27:37.985Z,93714.84
2023-05-20T04:30:07.162Z,93706.25
2023-05-20T04:32:39.433Z,93707.75
2023-05-20T04:35:12.106Z,93699.56
2023-05-20T04:37:48.605Z,93703.78
2023-05-20T04:40:17.923Z,93706.63
2023-05-20T04:42:45.776Z,93715.53
2023-05-20T04:45:18.242Z,93717.00
2023-05-20T04:47:52.755Z,93721.06
2023-05-20T04:50:21.433Z,93725.28
2023-05-20T04:52:49.754Z,93726.41
2023-05-20T04:55:19.930Z,93733.66
2023-05-20T04:57:51.106Z,93723.22
2023-05-20T05:00:43.986Z,93720.03
2023-05-20T05:03:15.092Z,93719.63
2023-05-20T05:05:43.496Z,93715.31
2023-05-20T05:08:14.241Z,93719.13
2023-05-20T05:10:42.649Z,93715.84
2023-05-20T05:13:11.434Z,93712.41
2023-05-20T05:15:38.920Z,93717.62
2023-05-20T05:18:27.309Z,93723.00
2023-05-20T05:21:04.659Z,93717.97
2023-05-20T05:23:34.158Z,93709.88
2023-05-20T05:26:05.415Z,93709.59
2023-05-20T05:28:32.852Z,93703.94
2023-05-20T05:31:02.566Z,93707.97
2023-05-20T05:33:40.056Z,93705.94
2023-05-20T05:36:10.391Z,93704.09
2023-05-20T05:38:38.754Z,93709.00
2023-05-20T05:41:08.804Z,93705.09
2023-05-20T05:43:38.817Z,93701.75
2023-05-20T05:46:13.408Z,93697.84
2023-05-20T05:48:47.619Z,93704.44
2023-05-20T05:51:27.997Z,93706.56
2023-05-20T05:53:55.764Z,93705.47
2023-05-20T05:56:31.190Z,93711.78
2023-05-20T05:58:59.291Z,93710.06
2023-05-20T06:01:28.149Z,93700.34
2023-05-20T06:03:56.076Z,93697.66
2023-05-20T06:06:23.572Z,93694.12
2023-05-20T06:08:51.036Z,93687.06
2023-05-20T06:11:21.060Z,93686.94
2023-05-20T06:13:48.406Z,93680.53
2023-05-20T06:16:17.013Z,93677.50
2023-05-20T06:18:47.096Z,93673.47
2023-05-20T06:21:33.301Z,93671.97
2023-05-20T06:24:08.985Z,93670.44
2023-05-20T06:26:43.212Z,93669.97
2023-05-20T06:29:13.501Z,93666.13
2023-05-20T06:31:41.576Z,93656.91
2023-05-20T06:34:09.601Z,93657.78
2023-05-20T06:36:37.800Z,93646.66
2023-05-20T06:39:11.263Z,93652.28
2023-05-20T06:41:49.052Z,93649.72
2023-05-20T06:44:20.218Z,93643.94
2023-05-20T06:46:52.962Z,93641.34
2023-05-20T06:49:20.779Z,93631.47
2023-05-20T06:51:51.169Z,93632.09
2023-05-20T06:54:21.380Z,93629.41
2023-05-20T06:56:51.626Z,93627.09
2023-05-20T06:59:21.455Z,93629.31
2023-05-20T07:01:51.535Z,93626.63
2023-05-20T07:04:19.494Z,93628.06
2023-05-20T07:06:52.638Z,93634.69
2023-05-20T07:09:20.944Z,93611.56
2023-05-20T07:12:00.987Z,93622.94
2023-05-20T07:14:30.906Z,93623.81
2023-05-20T07:17:02.912Z,93604.00
2023-05-20T07:19:35.361Z,93618.25
2023-05-20T07:22:12.570Z,93609.25
2023-05-20T07:24:40.456Z,93599.13
2023-05-20T07:27:08.756Z,93590.31
2023-05-20T07:29:37.358Z,93595.22
2023-05-20T07:32:05.854Z,93599.37
2023-05-20T07:34:33.883Z,93590.81
2023-05-20T07:37:01.554Z,93599.78
2023-05-20T07:39:29.111Z,93603.78
2023-05-20T07:41:56.828Z,93603.53
2023-05-20T07:44:24.525Z,93610.34
2023-05-20T07:46:53.037Z,93611.84
2023-05-20T07:49:20.912Z,93612.31
2023-05-20T07:51:48.529Z,93615.00
2023-05-20T07:54:16.647Z,93607.25
2023-05-20T07:56:45.275Z,93605.50
2023-05-20T07:59:12.915Z,93608.06
2023-05-20T08:01:42.811Z,93608.66
2023-05-20T08:04:11.428Z,93601.09
2023-05-20T08:06:40.213Z,93591.31
2023-05-20T08:09:08.694Z,93598.81
2023-05-20T08:11:44.024Z,93586.78
2023-05-20T08:14:12.537Z,93579.12
2023-05-20T08:16:44.984Z,93585.00
2023-05-20T08:19:20.034Z,93582.87
2023-05-20T08:21:50.879Z,93586.09
2023-05-20T08:24:19.140Z,93582.00
2023-05-20T08:26:47.153Z,93578.19
2023-05-20T08:29:25.890Z,93569.31
2023-05-20T08:31:53.767Z,93576.75
2023-05-20T08:34:31.370Z,93572.91
2023-05-20T08:36:59.107Z,93580.66
2023-05-20T08:39:28.707Z,93575.81
2023-05-20T08:41:59.137Z,93573.16
2023-05-20T08:44:29.027Z,93575.69
2023-05-20T08:46:58.001Z,93578.91
2023-05-20T08:49:26.516Z,93566.88
2023-05-20T08:51:54.252Z,93578.16
2023-05-20T08:54:24.218Z,93577.34
2023-05-20T08:56:54.641Z,93573.47
2023-05-20T08:59:27.749Z,93570.19
2023-05-20T09:01:58.101Z,93568.78
2023-05-20T09:04:28.891Z,93574.31
2023-05-20T09:06:56.470Z,93568.09
2023-05-20T09:09:23.980Z,93560.09
2023-05-20T09:11:54.673Z,93563.00
2023-05-20T09:14:23.993Z,93547.69
2023-05-20T09:16:52.396Z,93548.09
2023-05-20T09:19:29.175Z,93556.50
2023-05-20T09:22:26.152Z,93544.03
2023-05-20T09:24:55.944Z,93548.22
2023-05-20T09:27:29.362Z,93548.59
2023-05-20T09:29:58.567Z,93542.78
2023-05-20T09:32:29.206Z,93535.47
2023-05-20T09:34:56.626Z,93536.56
2023-05-20T09:37:26.773Z,93535.75
2023-05-20T09:40:04.185Z,93530.22
2023-05-20T09:42:50.536Z,93533.31
2023-05-20T09:45:23.771Z,93529.78
2023-05-20T09:47:55.946Z,93529.94
2023-05-20T09:50:25.692Z,93528.38
2023-05-20T09:52:55.056Z,93521.69
2023-05-20T09:55:25.153Z,93512.84
2023-05-20T09:57:55.108Z,93524.50
2023-05-20T10:00:23.010Z,93528.38
2023-05-20T10:02:52.427Z,93518.28
2023-05-20T10:05:33.960Z,93520.19
2023-05-20T10:08:29.719Z,93511.03
2023-05-20T10:11:06.922Z,93515.75
2023-05-20T10:14:04.541Z,93515.81
2023-05-20T10:17:20.128Z,93507.34
2023-05-20T10:19:50.061Z,93512.63
2023-05-20T10:22:32.082Z,93502.69
2023-05-20T10:25:21.940Z,93511.28
2023-05-20T10:27:49.378Z,93504.19
2023-05-20T10:30:22.716Z,93522.06
2023-05-20T10:32:57.054Z,93543.91
2023-05-20T10:35:28.938Z,93560.03
2023-05-20T10:38:09.986Z,93565.84
2023-05-20T10:40:38.744Z,93566.81
2023-05-20T10:43:11.199Z,93560.03
2023-05-20T10:45:50.168Z,93544.56
2023-05-20T10:48:29.463Z,93549.16
2023-05-20T10:51:04.959Z,93544.66
2023-05-20T10:53:45.329Z,93538.50
2023-05-20T10:56:20.519Z,93536.28
2023-05-20T10:58:49.071Z,93532.78
2023-05-20T11:01:19.298Z,93528.25
2023-05-20T11:03:49.023Z,93521.09
2023-05-20T11:06:19.352Z,93522.66
2023-05-20T11:08:47.693Z,93516.53
2023-05-20T11:11:15.966Z,93517.09
2023-05-20T11:13:44.017Z,93518.00
2023-05-20T11:16:12.071Z,93509.59
2023-05-20T11:18:40.042Z,93508.38
2023-05-20T11:21:10.183Z,93506.25
2023-05-20T11:23:39.963Z,93503.06
2023-05-20T11:26:09.223Z,93499.34
2023-05-20T11:28:36.927Z,93500.56
2023-05-20T11:31:05.509Z,93485.94
2023-05-20T11:33:33.593Z,93489.91
2023-05-20T11:36:03.664Z,93484.53
2023-05-20T11:38:34.500Z,93484.78
2023-05-20T11:41:02.054Z,93504.41
2023-05-20T11:43:30.228Z,93501.47
2023-05-20T11:46:04.680Z,93501.00
2023-05-20T11:48:32.482Z,93495.81
2023-05-20T11:51:11.917Z,93496.91
2023-05-20T11:53:42.244Z,93498.50
2023-05-20T11:56:11.118Z,93493.31
2023-05-20T11:58:39.775Z,93489.28
2023-05-20T12:01:21.476Z,93488.59
2023-05-20T12:03:53.377Z,93480.06
2023-05-20T12:06:23.551Z,93465.84
2023-05-20T12:08:52.256Z,93447.06
2023-05-20T12:11:19.619Z,93439.81
2023-05-20T12:13:47.364Z,93439.88
2023-05-20T12:16:15.130Z,93448.88
2023-05-20T12:18:43.169Z,93453.94
2023-05-20T12:21:10.703Z,93476.22
2023-05-20T12:24:29.466Z,93487.88
2023-05-20T12:26:35.729Z,93498.97
2023-05-20T12:29:03.792Z,93518.94
2023-05-20T12:31:33.816Z,93524.06
2023-05-20T12:34:03.274Z,93515.47
2023-05-20T12:36:31.707Z,93518.19
2023-05-20T12:38:59.279Z,93495.12
2023-05-20T12:41:27.104Z,93504.84
2023-05-20T12:43:55.500Z,93490.94
2023-05-20T12:46:23.540Z,93491.06
2023-05-20T12:48:54.966Z,93490.97
2023-05-20T12:51:31.817Z,93483.41
2023-05-20T12:54:34.879Z,93480.75
2023-05-20T12:57:03.553Z,93480.00
2023-05-20T12:59:32.126Z,93488.50
2023-05-20T13:02:00.153Z,93493.63
2023-05-20T13:04:28.897Z,93499.44
2023-05-20T13:06:58.666Z,93495.25
2023-05-20T13:09:26.174Z,93490.16
2023-05-20T13:11:57.378Z,93478.03
2023-05-20T13:14:25.775Z,93466.97
2023-05-20T13:16:56.577Z,93472.50
2023-05-20T13:19:24.799Z,93469.34
2023-05-20T13:21:54.816Z,93475.16
2023-05-20T13:24:22.196Z,93472.44
2023-05-20T13:26:49.556Z,93475.91
2023-05-20T13:29:17.583Z,93469.87
2023-05-20T13:31:44.952Z,93467.72
2023-05-20T13:34:12.399Z,93464.50
2023-05-20T13:36:40.718Z,93459.81
2023-05-20T13:39:08.091Z,93459.81
2023-05-20T13:41:35.412Z,93463.22
2023-05-20T13:44:03.689Z,93464.50
2023-05-20T13:46:31.387Z,93454.19
2023-05-20T13:48:58.879Z,93455.22
2023-05-20T13:51:26.605Z,93450.38
2023-05-20T13:53:54.037Z,93451.75
2023-05-20T13:56:21.504Z,93445.91
2023-05-20T13:58:49.164Z,93444.16
2023-05-20T14:01:16.948Z,93430.84
2023-05-20T14:03:45.161Z,93424.72
2023-05-20T14:06:15.138Z,93414.34
2023-05-20T14:08:42.544Z,93411.88
2023-05-20T14:11:10.300Z,93413.03
2023-05-20T14:13:37.705Z,93411.12
2023-05-20T14:16:05.681Z,93411.91
2023-05-20T14:18:33.384Z,93406.66
2023-05-20T14:21:01.327Z,93406.34
2023-05-20T14:23:28.646Z,93394.97
2023-05-20T14:25:56.435Z,93406.81
2023-05-20T14:28:23.805Z,93413.72
2023-05-20T14:30:51.347Z,93409.81
2023-05-20T14:33:19.096Z,93410.78
2023-05-20T14:35:46.480Z,93407.59
2023-05-20T14:38:13.806Z,93407.44
2023-05-20T14:40:41.569Z,93409.00
2023-05-20T14:43:09.058Z,93409.78
2023-05-20T14:45:36.421Z,93404.50
2023-05-20T14:48:04.392Z,93404.44
2023-05-20T14:50:31.836Z,93397.16
2023-05-20T14:52:59.191Z,93392.59
2023-05-20T14:55:27.001Z,93391.25
2023-05-20T14:57:54.403Z,93392.91
2023-05-20T15:00:22.271Z,93391.75
2023-05-20T15:02:50.296Z,93398.56
2023-05-20T15:05:18.285Z,93399.84
2023-05-20T15:07:46.926Z,93403.50
2023-05-20T15:10:14.842Z,93395.09
2023-05-20T15:12:42.516Z,93394.72
2023-05-20T15:15:10.562Z,93405.69
2023-05-20T15:17:38.317Z,93397.97
2023-05-20T15:20:06.431Z,93387.81
2023-05-20T15:22:34.011Z,93375.56
2023-05-20T15:25:02.107Z,93376.69
2023-05-20T15:27:29.699Z,93378.41
2023-05-20T15:29:57.117Z,93372.47
2023-05-20T15:32:24.940Z,93374.66
2023-05-20T15:34:52.596Z,93373.09
2023-05-20T15:37:20.059Z,93370.34
2023-05-20T15:39:47.804Z,93364.53
2023-05-20T15:42:18.562Z,93362.06
2023-05-20T15:44:46.550Z,93373.97
2023-05-20T15:47:14.314Z,93374.47
2023-05-20T15:49:41.801Z,93378.91
2023-05-20T15:52:09.277Z,93372.34
2023-05-20T15:54:36.982Z,93369.78
2023-05-20T15:57:05.227Z,93373.78
2023-05-20T15:59:32.664Z,93366.97
2023-05-20T16:02:00.502Z,93368.25
2023-05-20T16:04:28.321Z,93368.03
2023-05-20T16:06:56.088Z,93363.41
2023-05-20T16:09:23.451Z,93363.03
2023-05-20T16:11:51.382Z,93369.50
2023-05-20T16:14:18.843Z,93362.81
2023-05-20T16:16:46.602Z,93370.47
2023-05-20T16:19:14.516Z,93374.09
2023-05-20T16:21:42.015Z,93370.00
2023-05-20T16:24:09.483Z,93370.47
2023-05-20T16:26:37.233Z,93369.00
2023-05-20T16:29:04.661Z,93370.09
2023-05-20T16:31:32.093Z,93373.25
2023-05-20T16:33:59.815Z,93366.22
2023-05-20T16:36:27.758Z,93366.81
2023-05-20T16:38:55.115Z,93364.56
2023-05-20T16:41:23.075Z,93374.28
2023-05-20T16:43:50.531Z,93381.62
2023-05-20T16:46:18.001Z,93378.22
2023-05-20T16:48:45.779Z,93380.63
2023-05-20T16:51:13.177Z,93378.53
2023-05-20T16:53:40.704Z,93382.44
2023-05-20T16:56:08.587Z,93375.63
2023-05-20T16:58:36.024Z,93382.22
2023-05-20T17:01:03.897Z,93382.09
2023-05-20T17:03:32.074Z,93388.94
2023-05-20T17:05:59.616Z,93389.91
2023-05-20T17:08:27.179Z,93386.38
2023-05-20T17:10:54.990Z,93385.44
2023-05-20T17:13:22.427Z,93387.06
2023-05-20T17:15:49.826Z,93388.03
2023-05-20T17:18:17.656Z,93394.09
2023-05-20T17:20:45.033Z,93393.84
2023-05-20T17:23:12.500Z,93396.28
2023-05-20T17:25:40.261Z,93388.66
2023-05-20T17:28:07.656Z,93402.03
2023-05-20T17:30:35.244Z,93407.47
2023-05-20T17:33:03.547Z,93401.91
2023-05-20T17:35:31.858Z,93408.47
2023-05-20T17:37:59.322Z,93404.81
2023-05-20T17:40:27.193Z,93402.41
2023-05-20T17:42:54.575Z,93406.41
2023-05-20T17:45:21.941Z,93414.38
2023-05-20T17:47:49.855Z,93415.25
2023-05-20T17:50:17.198Z,93416.81
2023-05-20T17:52:44.571Z,93421.31
2023-05-20T17:55:13.175Z,93420.28
2023-05-20T17:57:40.938Z,93426.84
2023-05-20T18:00:10.374Z,93425.28
2023-05-20T18:02:38.558Z,93434.78
2023-05-20T18:05:06.933Z,93429.25
2023-05-20T18:07:34.771Z,93430.84
2023-05-20T18:10:02.175Z,93427.16
2023-05-20T18:12:30.097Z,93423.47
2023-05-20T18:14:57.725Z,93422.94
2023-05-20T18:17:25.193Z,93428.19
2023-05-20T18:19:52.969Z,93429.25
2023-05-20T18:22:20.340Z,93428.88
2023-05-20T18:24:47.718Z,93429.47
2023-05-20T18:27:15.691Z,93431.34
2023-05-20T18:29:43.079Z,93434.75
2023-05-20T18:32:11.482Z,93437.59
2023-05-20T18:34:39.333Z,93443.34
2023-05-20T18:37:07.287Z,93433.03
2023-05-20T18:39:34.912Z,93444.88
2023-05-20T18:42:02.699Z,93438.00
2023-05-20T18:44:30.311Z,93440.91
2023-05-20T18:46:57.706Z,93444.41
2023-05-20T18:49:25.457Z,93443.41
2023-05-20T18:51:53.044Z,93441.72
2023-05-20T18:54:20.505Z,93450.16
2023-05-20T18:56:51.409Z,93451.84
2023-05-20T18:59:19.234Z,93460.81
2023-05-20T19:01:46.821Z,93461.28
2023-05-20T19:04:14.611Z,93464.50
2023-05-20T19:06:42.076Z,93470.78
2023-05-20T19:09:09.401Z,93474.06
2023-05-20T19:11:37.167Z,93467.66
2023-05-20T19:14:06.597Z,93473.75
2023-05-20T19:16:34.097Z,93467.72
2023-05-20T19:19:01.895Z,93462.50
2023-05-20T19:21:30.886Z,93453.87
2023-05-20T19:23:58.374Z,93452.91
2023-05-20T19:26:26.695Z,93450.12
2023-05-20T19:28:54.075Z,93446.97
2023-05-20T19:31:21.674Z,93454.37
2023-05-20T19:33:53.188Z,93453.03
2023-05-20T19:36:20.847Z,93456.13
2023-05-20T19:38:48.747Z,93459.84
2023-05-20T19:41:16.550Z,93460.16
2023-05-20T19:43:44.056Z,93453.13
2023-05-20T19:46:11.860Z,93458.88
2023-05-20T19:48:39.305Z,93468.78
2023-05-20T19:51:07.254Z,93465.19
2023-05-20T19:53:34.906Z,93456.69
2023-05-20T19:56:02.447Z,93453.66
2023-05-20T19:58:29.868Z,93446.94
2023-05-20T20:00:57.670Z,93445.34
2023-05-20T20:03:25.404Z,93440.78
2023-05-20T20:05:53.377Z,93447.50
2023-05-20T20:08:20.907Z,93439.34
2023-05-20T20:10:49.436Z,93441.09
2023-05-20T20:13:16.754Z,93441.66
2023-05-20T20:15:44.267Z,93441.88
2023-05-20T20:18:12.040Z,93432.13
2023-05-20T20:20:42.760Z,93432.91
2023-05-20T20:23:10.340Z,93422.34
2023-05-20T20:25:39.296Z,93419.41
2023-05-20T20:28:08.054Z,93421.84
2023-05-20T20:30:36.410Z,93418.69
2023-05-20T20:33:06.710Z,93416.56
2023-05-20T20:35:34.966Z,93416.00
2023-05-20T20:38:09.685Z,93413.84
2023-05-20T20:40:44.974Z,93414.88
2023-05-20T20:43:20.506Z,93411.06
2023-05-20T20:45:53.314Z,93414.16
2023-05-20T20:48:27.043Z,93414.63
2023-05-20T20:50:55.363Z,93407.72
2023-05-20T20:53:23.063Z,93404.53
2023-05-20T20:55:53.029Z,93407.19
2023-05-20T20:58:20.781Z,93398.56
2023-05-20T21:00:49.001Z,93395.34
2023-05-20T21:03:16.652Z,93399.56
2023-05-20T21:05:44.646Z,93399.50
2023-05-20T21:08:13.388Z,93398.31
2023-05-20T21:10:40.981Z,93397.28
2023-05-20T21:13:08.815Z,93398.09
2023-05-20T21:15:36.456Z,93396.72
2023-05-20T21:18:04.191Z,93400.31
2023-05-20T21:20:31.917Z,93402.00
2023-05-20T21:22:59.305Z,93392.53
2023-05-20T21:25:26.781Z,93393.81
2023-05-20T21:27:54.434Z,93396.56
2023-05-20T21:30:21.910Z,93392.84
2023-05-20T21:32:49.245Z,93387.69
2023-05-20T21:35:16.924Z,93388.97
2023-05-20T21:37:44.411Z,93391.19
2023-05-20T21:40:12.356Z,93387.69
2023-05-20T21:42:40.152Z,93378.44
2023-05-20T21:45:08.326Z,93384.50
2023-05-20T21:47:35.944Z,93388.19
2023-05-20T21:50:04.143Z,93383.03
2023-05-20T21:52:31.606Z,93382.81
2023-05-20T21:54:59.038Z,93382.59
2023-05-20T21:57:27.144Z,93376.94
2023-05-20T21:59:54.530Z,93374.56
2023-05-20T22:02:21.932Z,93373.00
2023-05-20T22:04:49.617Z,93375.44
2023-05-20T22:07:17.011Z,93366.84
2023-05-20T22:09:44.506Z,93371.91
2023-05-20T22:12:15.621Z,93370.44
2023-05-20T22:14:43.098Z,93370.87
2023-05-20T22:17:10.787Z,93365.72
2023-05-20T22:19:38.944Z,93367.66
2023-05-20T22:22:06.484Z,93371.38
2023-05-20T22:24:33.943Z,93349.97
2023-05-20T22:27:01.960Z,93353.66
2023-05-20T22:29:31.695Z,93354.37
2023-05-20T22:31:59.581Z,93355.37
2023-05-20T22:34:27.367Z,93351.03
2023-05-20T22:36:54.749Z,93351.41
2023-05-20T22:39:22.090Z,93349.03
2023-05-20T22:41:49.913Z,93348.84
2023-05-20T22:44:17.371Z,93349.84
2023-05-20T22:46:44.738Z,93342.84
2023-05-20T22:49:13.127Z,93336.06
2023-05-20T22:51:41.251Z,93341.53
2023-05-20T22:54:09.776Z,93335.81
2023-05-20T22:56:37.388Z,93338.50
2023-05-20T22:59:04.673Z,93338.72
2023-05-20T23:01:32.324Z,93339.34
2023-05-20T23:04:00.038Z,93337.75
2023-05-20T23:06:27.448Z,93332.56
2023-05-20T23:08:54.825Z,93320.41
2023-05-20T23:11:23.444Z,93320.69
2023-05-20T23:13:50.981Z,93321.06
2023-05-20T23:16:18.378Z,93323.69
2023-05-20T23:18:47.716Z,93323.06
2023-05-20T23:21:15.133Z,93316.16
2023-05-20T23:23:42.525Z,93312.03
2023-05-20T23:26:10.104Z,93305.03
2023-05-20T23:28:37.365Z,93304.84
2023-05-20T23:31:04.746Z,93305.41
2023-05-20T23:33:32.899Z,93301.75
2023-05-20T23:36:00.302Z,93294.56
2023-05-20T23:38:27.690Z,93298.31
2023-05-20T23:40:55.364Z,93292.34
2023-05-20T23:43:22.731Z,93290.78
2023-05-20T23:45:50.139Z,93284.22
2023-05-20T23:48:18.038Z,93277.16
2023-05-20T23:50:46.317Z,93276.28
2023-05-20T23:53:13.684Z,93270.00
2023-05-20T23:55:41.482Z,93271.50
2023-05-20T23:58:08.751Z,93268.75
